Time;durP1;ratioP1;P1;durP2;ratioP2;P2;SDS_P1;SDS_P2;PMS_P1;PMS_P2;Temp;Humidity;BMP_temperature;BMP_pressure;BME280_temperature;BME280_humidity;BME280_pressure;Samples;Min_cycle;Max_cycle;Signal;HPM_P1;HPM_P2
2022/04/08 00:01:16;;;;;;;11.53;1.87;;;;;;;-145.18;100.00;46724.84;4990747;28;20070;-71
2022/04/08 00:03:42;;;;;;;10.77;2.37;;;;;;;-145.18;100.00;46726.81;4990283;28;20055;-71
2022/04/08 00:06:08;;;;;;;13.60;2.37;;;;;;;-145.18;100.00;46724.84;4990709;28;20483;-68
2022/04/08 00:08:34;;;;;;;11.70;1.63;;;;;;;-145.18;100.00;46722.91;4991177;28;20097;-68
2022/04/08 00:11:00;;;;;;;13.33;1.37;;;;;;;-145.18;100.00;46720.94;4990666;28;20705;-68
2022/04/08 00:13:25;;;;;;;11.27;1.40;;;;;;;-145.18;100.00;46720.94;4991274;28;20038;-68
2022/04/08 00:15:50;;;;;;;10.47;1.43;;;;;;;-145.18;100.00;46715.09;4973153;28;20451;-69
2022/04/08 00:18:16;;;;;;;7.30;1.70;;;;;;;-145.18;100.00;46695.56;4990779;28;20407;-68
2022/04/08 00:20:42;;;;;;;12.67;1.40;;;;;;;-145.18;100.00;46697.50;4990789;28;20058;-68
2022/04/08 00:23:07;;;;;;;13.00;1.50;;;;;;;-145.18;100.00;46697.50;4990649;28;20092;-69
2022/04/08 00:25:32;;;;;;;16.47;2.47;;;;;;;-145.18;100.00;46699.47;4991118;28;20109;-71
2022/04/08 00:27:58;;;;;;;15.60;1.57;;;;;;;-145.18;100.00;46699.47;4989318;28;20034;-71
2022/04/08 00:30:23;;;;;;;13.03;1.93;;;;;;;-145.18;100.00;46705.31;4991204;28;20038;-72
2022/04/08 00:32:51;;;;;;;11.60;1.63;;;;;;;-145.18;100.00;46709.22;4990052;28;20035;-68
2022/04/08 00:35:16;;;;;;;11.53;1.60;;;;;;;-145.18;100.00;46715.09;4991071;28;20030;-68
2022/04/08 00:37:41;;;;;;;15.80;2.40;;;;;;;-145.18;100.00;46717.03;4971901;28;20284;-69
2022/04/08 00:40:07;;;;;;;13.70;1.73;;;;;;;-145.18;100.00;46722.91;4991024;28;20060;-68
2022/04/08 00:42:34;;;;;;;19.03;2.97;;;;;;;-145.18;100.00;46720.94;4990263;28;20372;-69
2022/04/08 00:44:59;;;;;;;14.00;2.07;;;;;;;-145.18;100.00;46717.03;4990752;28;20483;-69
2022/04/08 00:47:24;;;;;;;12.50;2.30;;;;;;;-145.18;100.00;46722.91;4990445;28;20334;-69
2022/04/08 00:49:52;;;;;;;10.83;2.43;;;;;;;-145.18;100.00;46724.84;4990581;28;20042;-69
2022/04/08 00:52:18;;;;;;;14.93;2.67;;;;;;;-145.18;100.00;46722.91;4973037;28;20069;-69
2022/04/08 00:54:45;;;;;;;17.60;2.77;;;;;;;-145.18;100.00;46722.91;4989820;28;20363;-71
2022/04/08 00:57:11;;;;;;;13.67;1.87;;;;;;;-145.18;100.00;46722.91;4990485;28;20046;-70
2022/04/08 00:59:37;;;;;;;16.20;1.97;;;;;;;-145.18;100.00;46722.91;4990929;28;20769;-69
2022/04/08 01:02:02;;;;;;;13.30;1.63;;;;;;;-145.18;100.00;46726.81;4989657;28;20276;-70
2022/04/08 01:04:28;;;;;;;10.90;1.57;;;;;;;-145.18;100.00;46722.91;4990723;28;20303;-69
2022/04/08 01:06:54;;;;;;;6.73;0.90;;;;;;;-145.18;100.00;46722.91;4990198;28;20041;-70
2022/04/08 01:09:22;;;;;;;7.80;1.47;;;;;;;-145.18;100.00;46724.84;4989934;28;20462;-69
2022/04/08 01:11:48;;;;;;;12.37;1.17;;;;;;;-145.18;100.00;46719.00;4992801;28;20264;-70
2022/04/08 01:14:15;;;;;;;10.93;2.23;;;;;;;-145.18;100.00;46720.94;4994600;28;20641;-69
2022/04/08 01:16:41;;;;;;;16.17;1.83;;;;;;;-145.18;100.00;46720.94;4993895;28;20291;-70
2022/04/08 01:19:07;;;;;;;14.87;1.40;;;;;;;-145.18;100.00;46717.03;4994448;28;20279;-70
2022/04/08 01:21:33;;;;;;;14.47;1.77;;;;;;;-145.18;100.00;46717.03;4993995;28;20045;-70
2022/04/08 01:24:01;;;;;;;23.37;1.87;;;;;;;-145.18;100.00;46713.13;4993121;28;20065;-70
2022/04/08 01:26:27;;;;;;;15.30;1.70;;;;;;;-145.18;100.00;46713.13;4993809;28;20272;-70
2022/04/08 01:28:54;;;;;;;10.73;2.23;;;;;;;-145.18;100.00;46713.13;4993784;28;20291;-70
2022/04/08 01:31:19;;;;;;;22.17;3.03;;;;;;;-145.18;100.00;46717.03;4993792;28;20038;-70
2022/04/08 01:33:45;;;;;;;13.53;2.23;;;;;;;-145.18;100.00;46713.13;4976661;28;20379;-69
2022/04/08 01:36:11;;;;;;;13.40;1.93;;;;;;;-145.18;100.00;46715.09;4993793;28;20034;-70
2022/04/08 01:38:36;;;;;;;11.70;1.50;;;;;;;-145.18;100.00;46717.03;4992803;28;20030;-70
2022/04/08 01:41:02;;;;;;;9.47;1.10;;;;;;;-145.18;100.00;46713.13;4993824;28;20038;-70
2022/04/08 01:43:28;;;;;;;8.40;1.63;;;;;;;-145.18;100.00;46713.13;4993553;28;20033;-69
2022/04/08 01:45:53;;;;;;;10.70;1.20;;;;;;;-145.18;100.00;46719.00;4993850;28;20030;-69
2022/04/08 01:48:19;;;;;;;10.27;1.90;;;;;;;-145.18;100.00;46715.09;4993156;28;20080;-69
2022/04/08 01:50:44;;;;;;;15.57;1.83;;;;;;;-145.18;100.00;46715.09;4975316;28;20026;-69
2022/04/08 01:53:10;;;;;;;9.63;1.13;;;;;;;-145.18;100.00;46711.19;4993380;28;20491;-69
2022/04/08 01:55:35;;;;;;;9.03;1.40;;;;;;;-145.18;100.00;46717.03;4993621;28;20403;-69
2022/04/08 01:58:02;;;;;;;13.30;2.13;;;;;;;-145.18;100.00;46713.13;4992505;28;20132;-69
2022/04/08 02:03:11;;;;;;;8.37;1.57;;;;;;;-145.18;100.00;46715.09;5025656;23;20315;-70
2022/04/08 02:05:36;;;;;;;13.57;1.67;;;;;;;-145.18;100.00;46715.09;4988976;28;20268;-70
2022/04/08 02:08:01;;;;;;;12.47;2.13;;;;;;;-145.18;100.00;46717.03;4975483;28;20030;-70
2022/04/08 02:10:27;;;;;;;14.23;1.70;;;;;;;-145.18;100.00;46717.03;4993533;28;20034;-70
2022/04/08 02:12:52;;;;;;;20.07;2.30;;;;;;;-145.18;100.00;46713.13;4992786;28;20069;-70
2022/04/08 02:15:26;;;;;;;12.47;1.50;;;;;;;-145.18;100.00;46717.03;4993634;28;20109;-70
2022/04/08 02:17:51;;;;;;;14.17;2.10;;;;;;;-145.18;100.00;46709.22;4992717;28;20037;-70
2022/04/08 02:20:17;;;;;;;16.13;2.07;;;;;;;-145.18;100.00;46713.13;4993285;28;20272;-70
2022/04/08 02:22:43;;;;;;;12.00;2.27;;;;;;;-145.18;100.00;46711.19;4992083;28;20117;-70
2022/04/08 02:25:11;;;;;;;8.90;1.60;;;;;;;-145.18;100.00;46711.19;4993584;28;20030;-70
2022/04/08 02:27:36;;;;;;;10.13;1.90;;;;;;;-145.18;100.00;46713.13;4992628;28;20040;-70
2022/04/08 02:30:02;;;;;;;11.17;2.20;;;;;;;-145.18;100.00;46713.13;4975855;28;20276;-70
2022/04/08 02:32:27;;;;;;;16.37;1.80;;;;;;;-145.18;100.00;46699.47;4992879;28;20070;-70
2022/04/08 02:34:52;;;;;;;13.37;3.07;;;;;;;-145.18;100.00;46707.28;4992866;28;20054;-70
2022/04/08 02:37:18;;;;;;;11.83;2.00;;;;;;;-145.18;100.00;46699.47;4992392;28;20093;-70
2022/04/08 02:39:44;;;;;;;21.53;3.03;;;;;;;-145.18;100.00;46693.59;4992834;28;20046;-70
2022/04/08 02:42:09;;;;;;;15.03;2.80;;;;;;;-145.18;100.00;46695.56;4992608;28;20030;-70
2022/04/08 02:44:35;;;;;;;15.90;2.33;;;;;;;-145.18;100.00;46691.66;4992698;28;20549;-70
2022/04/08 02:47:00;;;;;;;13.17;2.30;;;;;;;-145.18;100.00;46691.66;4992662;28;20035;-70
2022/04/08 02:49:25;;;;;;;23.10;2.13;;;;;;;-145.18;100.00;46685.78;4992647;28;20487;-70
2022/04/08 02:51:51;;;;;;;18.43;2.47;;;;;;;-145.18;100.00;46691.66;4974962;28;20085;-70
2022/04/08 02:54:17;;;;;;;15.37;2.37;;;;;;;-145.18;100.00;46683.84;4992688;28;20065;-70
2022/04/08 02:56:42;;;;;;;10.80;2.03;;;;;;;-145.18;100.00;46687.75;4975040;28;20570;-70
2022/04/08 02:59:09;;;;;;;17.20;2.20;;;;;;;-145.18;100.00;46687.75;4992137;28;20041;-70
2022/04/08 03:01:34;;;;;;;20.13;2.53;;;;;;;-145.18;100.00;46703.38;4992467;28;20030;-70
2022/04/08 03:04:00;;;;;;;13.27;2.00;;;;;;;-145.18;100.00;46697.50;5007809;28;20314;-70
2022/04/08 03:06:26;;;;;;;15.57;1.80;;;;;;;-145.18;100.00;46691.66;5012304;28;20038;-70
2022/04/08 03:08:52;;;;;;;10.93;1.80;;;;;;;-145.18;100.00;46693.59;5011340;28;20038;-70
2022/04/08 03:11:18;;;;;;;11.53;1.87;;;;;;;-145.18;100.00;46693.59;5011780;28;20082;-70
2022/04/08 03:13:43;;;;;;;13.53;1.83;;;;;;;-145.18;100.00;46695.56;5011522;28;20293;-70
2022/04/08 03:16:08;;;;;;;14.70;1.60;;;;;;;-145.18;100.00;46705.31;5012096;28;20038;-70
2022/04/08 03:18:34;;;;;;;15.37;1.97;;;;;;;-145.18;100.00;46703.38;5011403;28;20393;-70
2022/04/08 03:20:59;;;;;;;12.27;2.77;;;;;;;-145.18;100.00;46701.41;4994121;28;20038;-70
2022/04/08 03:23:24;;;;;;;17.03;2.03;;;;;;;-145.18;100.00;46699.47;5011673;28;20038;-70
2022/04/08 03:25:50;;;;;;;14.23;2.00;;;;;;;-145.18;100.00;46701.41;5011486;28;20537;-70
2022/04/08 03:28:15;;;;;;;8.47;1.53;;;;;;;-145.18;100.00;46705.31;5011502;28;20113;-70
2022/04/08 03:30:41;;;;;;;20.97;1.80;;;;;;;-145.18;100.00;46701.41;5011559;28;20078;-70
2022/04/08 03:33:06;;;;;;;18.63;1.60;;;;;;;-145.18;100.00;46703.38;5010600;28;20037;-70
2022/04/08 03:35:32;;;;;;;16.80;2.67;;;;;;;-145.18;100.00;46707.28;5011769;28;20402;-70
2022/04/08 03:37:57;;;;;;;11.40;2.40;;;;;;;-145.18;100.00;46701.41;5010944;28;20045;-70
2022/04/08 03:40:23;;;;;;;12.03;2.03;;;;;;;-145.18;100.00;46699.47;5011816;28;20044;-70
2022/04/08 03:42:48;;;;;;;9.80;2.00;;;;;;;-145.18;100.00;46691.66;5010749;28;20109;-70
2022/04/08 03:45:14;;;;;;;8.67;1.60;;;;;;;-145.18;100.00;46691.66;5011662;28;20030;-70
2022/04/08 03:47:40;;;;;;;13.23;1.97;;;;;;;-145.18;100.00;46699.47;5010842;28;20087;-70
2022/04/08 03:50:06;;;;;;;12.67;2.00;;;;;;;-145.18;100.00;46703.38;5011405;28;20048;-70
2022/04/08 03:52:34;;;;;;;11.93;1.93;;;;;;;-145.18;100.00;46703.38;4995387;28;20026;-70
2022/04/08 03:55:01;;;;;;;7.73;1.90;;;;;;;-145.18;100.00;46703.38;4980812;28;20314;-70
2022/04/08 03:57:27;;;;;;;10.50;1.73;;;;;;;-145.18;100.00;46695.56;4981946;28;20299;-70
2022/04/08 03:59:53;;;;;;;7.73;2.00;;;;;;;-145.18;100.00;46701.41;4980665;28;20888;-70
2022/04/08 04:02:19;;;;;;;13.00;1.90;;;;;;;-145.18;100.00;46699.47;4980208;28;20347;-70
2022/04/08 04:09:20;;;;;;;13.97;2.30;;;;;;;-145.18;100.00;46693.59;4979483;28;20097;-70
2022/04/08 04:13:15;;;;;;;8.50;2.57;;;;;;;-145.18;100.00;46699.47;4981733;28;20244;-70
2022/04/08 04:17:10;;;;;;;9.70;2.67;;;;;;;-145.18;100.00;46699.47;4989941;28;20399;-70
2022/04/08 04:21:05;;;;;;;13.03;2.23;;;;;;;-145.18;100.00;46701.41;4991037;28;20765;-71
2022/04/08 04:25:00;;;;;;;15.17;2.27;;;;;;;-145.18;100.00;46707.28;4990616;28;20264;-70
2022/04/08 04:28:58;;;;;;;9.83;3.33;;;;;;;-145.18;100.00;46699.47;4985822;28;20327;-70
2022/04/08 04:32:57;;;;;;;6.77;2.30;;;;;;;-145.18;100.00;46693.59;4988723;28;20343;-70
2022/04/08 04:36:55;;;;;;;15.30;2.60;;;;;;;-145.18;100.00;46693.59;4991343;28;20778;-70
2022/04/08 04:44:27;;;;;;;14.27;2.90;;;;;;;-145.18;100.00;46691.66;4980583;28;20263;-71
2022/04/08 04:47:51;;;;;;;;;;;;;;;-145.18;100.00;46697.50;4991343;28;20276;-71
2022/04/08 04:51:46;;;;;;;10.87;2.33;;;;;;;-145.18;100.00;46687.75;4994985;28;19937;-70
2022/04/08 04:55:44;;;;;;;8.70;1.73;;;;;;;-145.18;100.00;46685.78;4992435;28;20267;-70
2022/04/08 04:59:39;;;;;;;17.47;2.33;;;;;;;-145.18;100.00;46689.69;4994405;28;20275;-70
2022/04/08 23:53:35;;;;;;;16.47;2.13;;;;;;;-145.18;100.00;46734.63;4987935;28;20378;-69
2022/04/08 23:57:25;;;;;;;19.40;3.83;;;;;;;-145.18;100.00;46732.66;4989389;28;20753;-69
